Time;durP1;ratioP1;P1;durP2;ratioP2;P2;SDS_P1;SDS_P2;PMS_P1;PMS_P2;Temp;Humidity;BMP_temperature;BMP_pressure;BME280_temperature;BME280_humidity;BME280_pressure;Samples;Min_cycle;Max_cycle;Signal;HPM_P1;HPM_P2
2022/04/25 11:46:32;;;;;;;;;;;12.90;86.40;;;;;;5122123;27;20373;-51
2022/04/25 11:48:59;;;;;;;14.32;4.50;;;12.90;86.50;;;;;;5101199;28;20010;-55
2022/04/25 11:51:26;;;;;;;6.60;4.30;;;12.90;86.10;;;;;;5089801;28;20086;-55
2022/04/25 11:53:57;;;;;;;10.70;4.30;;;13.00;86.10;;;;;;5090947;28;20399;-54
2022/04/25 11:56:24;;;;;;;7.68;4.30;;;13.00;85.50;;;;;;5090255;28;20429;-54
2022/04/25 11:58:50;;;;;;;10.70;4.13;;;13.00;85.50;;;;;;5095468;28;20490;-50
2022/04/25 12:01:17;;;;;;;8.93;4.47;;;12.90;85.60;;;;;;5090192;28;20044;-53
2022/04/25 12:03:44;;;;;;;10.98;4.43;;;12.80;85.60;;;;;;5093173;28;20060;-53
2022/04/25 12:06:12;;;;;;;11.52;4.32;;;12.90;86.60;;;;;;5090528;28;20041;-52
2022/04/25 12:16:55;;;;;;;9.52;4.30;;;12.90;88.00;;;;;;5092626;28;20036;-55
2022/04/25 12:19:22;;;;;;;9.75;3.88;;;12.80;86.70;;;;;;5090054;28;20109;-53
2022/04/25 12:21:49;;;;;;;8.38;4.03;;;12.80;86.50;;;;;;5090407;28;20102;-53
2022/04/25 12:24:15;;;;;;;11.40;4.72;;;12.80;86.10;;;;;;5090124;28;20071;-53
2022/04/25 12:26:42;;;;;;;10.30;4.50;;;13.00;85.70;;;;;;5090075;28;20040;-51
2022/04/25 12:29:10;;;;;;;8.35;3.90;;;13.20;85.60;;;;;;5089777;28;20501;-55
2022/04/25 12:31:37;;;;;;;7.30;3.90;;;13.40;85.10;;;;;;5093793;28;20102;-53
2022/04/25 12:34:04;;;;;;;7.35;4.25;;;13.60;84.10;;;;;;5089723;28;20037;-50
2022/04/25 12:36:32;;;;;;;8.30;3.67;;;13.80;82.10;;;;;;5090036;28;20448;-54
2022/04/25 12:39:02;;;;;;;9.52;3.55;;;14.10;83.00;;;;;;5089769;28;20090;-54
2022/04/25 12:41:30;;;;;;;5.25;2.97;;;14.20;74.50;;;;;;5089856;28;20098;-51
2022/04/25 12:43:56;;;;;;;6.47;3.38;;;14.30;72.60;;;;;;5089666;28;20055;-50
2022/04/25 12:46:23;;;;;;;7.05;3.63;;;14.40;72.40;;;;;;5089859;28;20066;-53
2022/04/25 12:48:50;;;;;;;9.80;3.42;;;14.40;73.20;;;;;;5089129;28;20044;-54
2022/04/25 12:51:16;;;;;;;5.15;3.63;;;14.40;72.50;;;;;;5089176;28;20044;-54
2022/04/25 12:53:43;;;;;;;4.88;3.22;;;14.50;71.10;;;;;;5092024;28;20035;-55
2022/04/25 12:56:10;;;;;;;7.32;3.20;;;14.60;71.80;;;;;;5085832;28;20041;-53
2022/04/25 12:58:37;;;;;;;5.85;3.45;;;14.60;70.40;;;;;;5075766;28;20411;-54
2022/04/25 13:01:03;;;;;;;5.70;3.13;;;14.70;69.90;;;;;;5077878;28;20071;-55
2022/04/25 13:03:45;;;;;;;5.55;3.25;;;14.70;69.50;;;;;;5073583;28;20117;-50
2022/04/25 13:06:14;;;;;;;8.95;3.67;;;14.70;70.70;;;;;;5074390;28;20507;-52
2022/04/25 13:08:40;;;;;;;5.43;3.25;;;14.80;70.10;;;;;;5085191;28;20040;-50
2022/04/25 13:11:07;;;;;;;5.85;3.00;;;14.80;68.00;;;;;;5075552;28;20072;-53
2022/04/25 13:13:34;;;;;;;7.30;3.40;;;14.80;70.20;;;;;;5075730;28;20036;-52
2022/04/25 13:16:01;;;;;;;9.75;3.33;;;14.80;71.20;;;;;;5075682;28;20075;-56
2022/04/25 13:18:27;;;;;;;5.18;3.28;;;14.60;75.40;;;;;;5075712;28;20040;-54
2022/04/25 13:20:54;;;;;;;12.07;4.40;;;14.30;81.40;;;;;;5075426;28;20067;-51
2022/04/25 13:23:21;;;;;;;9.27;4.75;;;13.60;87.50;;;;;;5075576;28;20512;-50
2022/04/25 13:25:47;;;;;;;11.75;5.63;;;13.00;92.20;;;;;;5075173;28;20072;-52
2022/04/25 13:28:14;;;;;;;10.60;5.00;;;12.60;95.20;;;;;;5075380;28;20475;-51
2022/04/25 13:30:41;;;;;;;12.45;4.93;;;12.30;94.50;;;;;;5075478;28;20090;-50
2022/04/25 13:33:08;;;;;;;10.05;5.00;;;12.00;96.60;;;;;;5075214;28;20066;-55
2022/04/25 13:35:35;;;;;;;11.68;4.75;;;11.90;96.20;;;;;;5075423;28;20044;-53
2022/04/25 13:38:02;;;;;;;8.80;5.25;;;11.80;96.40;;;;;;5081046;28;20046;-52
2022/04/25 13:40:29;;;;;;;9.32;5.75;;;11.90;96.40;;;;;;5073933;28;20044;-54
2022/04/25 13:42:55;;;;;;;6.18;5.10;;;12.00;97.50;;;;;;5070497;28;20422;-54
2022/04/25 13:45:22;;;;;;;7.93;5.30;;;12.10;96.50;;;;;;5074847;28;20049;-51
2022/04/25 13:47:49;;;;;;;9.77;5.78;;;12.20;97.10;;;;;;5080564;28;20124;-51
2022/04/25 13:50:16;;;;;;;7.68;5.20;;;12.30;95.80;;;;;;5075346;28;20067;-54
2022/04/25 13:52:42;;;;;;;7.38;5.20;;;12.30;96.70;;;;;;5076096;28;20044;-52
2022/04/25 13:55:11;;;;;;;6.38;5.10;;;12.40;97.20;;;;;;5068419;28;20068;-54
2022/04/25 13:57:38;;;;;;;7.10;4.97;;;12.50;96.50;;;;;;5068581;28;20039;-50
2022/04/25 14:00:05;;;;;;;7.75;4.78;;;12.70;95.90;;;;;;5068316;28;20106;-54
2022/04/25 14:05:23;;;;;;;7.00;5.32;;;12.90;95.80;;;;;;5074460;28;20438;-51
2022/04/25 14:07:50;;;;;;;8.63;4.95;;;12.90;94.10;;;;;;5073926;28;20040;-50
2022/04/25 14:10:17;;;;;;;7.68;5.18;;;12.90;93.50;;;;;;5074222;28;20506;-51
2022/04/25 14:12:44;;;;;;;7.70;4.65;;;12.80;95.80;;;;;;5078058;28;20041;-48
2022/04/25 14:15:11;;;;;;;10.85;5.40;;;12.80;94.70;;;;;;5074488;28;20044;-48
2022/04/25 14:17:42;;;;;;;8.73;4.82;;;12.80;94.90;;;;;;5081064;28;20119;-52
2022/04/25 14:20:08;;;;;;;11.32;5.50;;;12.80;95.30;;;;;;5074074;28;20064;-48
2022/04/25 14:22:35;;;;;;;10.32;5.32;;;12.80;95.40;;;;;;5074182;28;20119;-49
2022/04/25 14:25:03;;;;;;;7.45;4.18;;;12.80;95.00;;;;;;5074303;28;20487;-52
2022/04/25 14:27:30;;;;;;;8.32;4.68;;;12.80;93.70;;;;;;5074152;28;20041;-52
2022/04/25 14:29:57;;;;;;;7.38;3.92;;;12.80;92.90;;;;;;5074655;28;20479;-50
2022/04/25 14:32:23;;;;;;;9.73;4.00;;;12.90;92.80;;;;;;5074001;28;20044;-48
2022/04/25 14:34:50;;;;;;;11.25;4.00;;;12.90;92.30;;;;;;5073799;28;20048;-47
2022/04/25 14:37:17;;;;;;;7.10;4.22;;;13.00;93.20;;;;;;5073880;28;20079;-48
2022/04/25 14:39:44;;;;;;;6.45;3.60;;;13.10;93.10;;;;;;5073964;28;20032;-48
2022/04/25 14:42:10;;;;;;;6.63;3.58;;;13.30;92.40;;;;;;5079825;28;20047;-55
2022/04/25 14:44:37;;;;;;;10.23;4.07;;;13.40;92.80;;;;;;5073891;28;20121;-52
2022/04/25 14:47:06;;;;;;;6.20;3.75;;;13.50;93.10;;;;;;5075082;28;20491;-53
2022/04/25 14:55:04;;;;;;;10.40;3.40;;;13.20;90.50;;;;;;5073474;28;20479;-53
2022/04/25 14:57:30;;;;;;;11.18;3.95;;;13.10;90.30;;;;;;5079809;28;20078;-49
2022/04/25 14:59:57;;;;;;;6.82;3.40;;;13.00;91.30;;;;;;5073558;28;20441;-55
2022/04/25 15:02:24;;;;;;;7.65;4.20;;;13.10;92.20;;;;;;5076049;28;20102;-51
2022/04/25 15:04:51;;;;;;;7.00;3.72;;;13.10;92.50;;;;;;5073315;28;20505;-54
2022/04/25 15:07:18;;;;;;;5.95;3.50;;;13.20;91.60;;;;;;5073209;28;20041;-50
2022/04/25 15:09:46;;;;;;;7.53;3.67;;;13.40;91.60;;;;;;5073474;28;20426;-50
2022/04/25 15:12:13;;;;;;;8.45;3.53;;;13.60;91.30;;;;;;5073086;28;20040;-52
2022/04/25 15:14:40;;;;;;;5.80;3.60;;;13.60;90.40;;;;;;5071648;28;20544;-53
2022/04/25 15:17:06;;;;;;;6.95;3.45;;;13.60;90.70;;;;;;5073261;28;20048;-55
2022/04/25 15:19:33;;;;;;;7.82;4.10;;;13.60;90.90;;;;;;5073116;28;20047;-55
2022/04/25 15:22:01;;;;;;;9.23;4.03;;;13.60;91.30;;;;;;5071771;28;20044;-55
2022/04/25 15:24:28;;;;;;;6.45;3.38;;;13.50;90.30;;;;;;5074239;28;20063;-53
2022/04/25 15:26:55;;;;;;;8.13;3.35;;;13.50;90.90;;;;;;5073477;28;20476;-52
2022/04/25 15:29:22;;;;;;;8.40;3.45;;;13.40;90.40;;;;;;5073249;28;20032;-50
2022/04/25 15:31:48;;;;;;;7.35;4.20;;;13.40;91.40;;;;;;5072989;28;20067;-55
2022/04/25 15:34:15;;;;;;;7.07;3.30;;;13.50;90.60;;;;;;5073037;28;20399;-53
2022/04/25 15:36:42;;;;;;;7.70;3.80;;;13.50;88.80;;;;;;5073204;28;20044;-52
2022/04/25 15:39:09;;;;;;;8.70;3.05;;;13.30;87.00;;;;;;5073030;28;20094;-51
2022/04/25 15:41:36;;;;;;;4.32;2.85;;;13.20;88.30;;;;;;5073043;28;20438;-53
2022/04/25 15:44:02;;;;;;;7.25;3.10;;;13.20;89.20;;;;;;5071588;28;20043;-52
2022/04/25 15:46:29;;;;;;;7.35;3.13;;;13.30;86.10;;;;;;5074695;28;20137;-54
2022/04/25 15:48:56;;;;;;;8.57;3.00;;;13.40;86.10;;;;;;5071630;28;20033;-53
2022/04/25 15:51:23;;;;;;;5.18;2.80;;;13.40;84.20;;;;;;5071853;28;20454;-51
2022/04/25 15:59:24;;;;;;;6.43;2.80;;;13.40;83.00;;;;;;5072411;28;20048;-54
2022/04/25 16:01:51;;;;;;;5.00;3.03;;;13.50;84.40;;;;;;5071575;28;20036;-56
2022/04/25 16:04:18;;;;;;;6.15;3.00;;;13.70;84.70;;;;;;5070112;28;20052;-52
2022/04/25 16:06:45;;;;;;;6.43;3.10;;;13.90;83.20;;;;;;5070665;28;20063;-55
2022/04/25 16:09:12;;;;;;;6.53;2.97;;;14.00;81.90;;;;;;5072469;28;20040;-54
2022/04/25 16:11:39;;;;;;;4.90;3.00;;;14.10;80.60;;;;;;5071845;28;20044;-54
2022/04/25 16:14:05;;;;;;;6.72;3.30;;;14.30;83.10;;;;;;5074270;28;20041;-53
2022/04/25 16:16:32;;;;;;;8.10;2.90;;;14.90;79.50;;;;;;5075374;28;20048;-52
2022/04/25 16:18:59;;;;;;;15.25;3.35;;;15.00;79.20;;;;;;5072524;28;20068;-54
2022/04/25 16:21:26;;;;;;;5.80;2.90;;;15.00;78.00;;;;;;5071127;28;20098;-56
2022/04/25 16:23:52;;;;;;;5.00;3.00;;;14.90;80.40;;;;;;5066816;28;20045;-53
2022/04/25 16:26:19;;;;;;;5.53;3.50;;;14.60;81.50;;;;;;5071460;28;20131;-54
2022/04/25 16:28:46;;;;;;;9.57;3.47;;;14.40;82.50;;;;;;5070989;28;20043;-52
2022/04/25 16:31:13;;;;;;;5.43;3.35;;;14.10;85.80;;;;;;5070763;28;20033;-53
2022/04/25 16:33:40;;;;;;;11.15;3.60;;;13.90;86.30;;;;;;5072277;28;20047;-56
2022/04/25 16:36:07;;;;;;;6.03;3.33;;;13.80;88.40;;;;;;5074897;28;20067;-53
2022/04/25 16:38:34;;;;;;;7.50;3.70;;;13.80;88.70;;;;;;5074802;28;22046;-53
2022/04/25 16:41:00;;;;;;;7.45;3.28;;;13.80;90.20;;;;;;5072585;28;20545;-50
2022/04/25 16:43:29;;;;;;;7.13;3.47;;;13.80;88.80;;;;;;5071563;28;20044;-55
2022/04/25 16:45:55;;;;;;;7.88;3.30;;;13.60;91.50;;;;;;5074670;28;20041;-58
2022/04/25 16:48:22;;;;;;;7.45;4.00;;;13.10;92.00;;;;;;5076639;28;20044;-56
2022/04/25 16:50:49;;;;;;;7.00;3.55;;;12.70;95.40;;;;;;5075639;28;20037;-55
2022/04/25 16:53:16;;;;;;;6.00;3.28;;;12.50;95.70;;;;;;5074349;28;20120;-50
2022/04/25 16:55:43;;;;;;;5.00;2.97;;;12.50;95.90;;;;;;5074797;28;20068;-53
2022/04/25 16:58:09;;;;;;;4.75;2.90;;;12.40;95.00;;;;;;5074214;28;20033;-52
2022/04/25 17:00:36;;;;;;;4.63;3.30;;;12.40;95.20;;;;;;5074553;28;20032;-55
2022/04/25 17:03:03;;;;;;;6.90;3.30;;;12.40;95.20;;;;;;5075374;28;20028;-56
2022/04/25 17:05:30;;;;;;;7.80;3.92;;;12.40;95.20;;;;;;5074857;28;20475;-52
2022/04/25 17:07:57;;;;;;;8.48;3.80;;;12.40;95.10;;;;;;5075066;28;20543;-54
2022/04/25 17:10:24;;;;;;;5.32;3.70;;;12.40;95.70;;;;;;5074114;28;20064;-53
2022/04/25 17:12:51;;;;;;;5.35;3.90;;;12.40;96.40;;;;;;5074176;28;20041;-55
2022/04/25 17:15:17;;;;;;;9.75;3.80;;;12.30;96.20;;;;;;5074667;28;20029;-51
2022/04/25 17:17:44;;;;;;;7.65;3.80;;;12.30;96.50;;;;;;5076806;28;20037;-53
2022/04/25 17:20:12;;;;;;;7.70;4.00;;;12.20;95.50;;;;;;5072823;28;20041;-52
2022/04/25 17:22:38;;;;;;;7.97;4.50;;;12.20;96.40;;;;;;5074178;28;20041;-53
2022/04/25 17:25:06;;;;;;;11.82;4.88;;;12.20;95.80;;;;;;5074557;28;20447;-55
2022/04/25 17:27:33;;;;;;;9.07;4.18;;;12.30;96.50;;;;;;5073193;28;20047;-51
2022/04/25 17:30:00;;;;;;;9.20;3.95;;;12.40;95.70;;;;;;5075055;28;20142;-53
2022/04/25 17:35:23;;;;;;;12.80;4.47;;;12.50;96.30;;;;;;5074232;28;20040;-53
